Time;durP1;ratioP1;P1;durP2;ratioP2;P2;SDS_P1;SDS_P2;PMS_P1;PMS_P2;Temp;Humidity;BMP_temperature;BMP_pressure;BME280_temperature;BME280_humidity;BME280_pressure;Samples;Min_cycle;Max_cycle;Signal;HPM_P1;HPM_P2
2021/01/03 00:00:30;;;;;;;21.30;9.80;;;0.90;99.90;;;;;;5015968;28;20720;-71
2021/01/03 00:02:57;;;;;;;21.57;9.00;;;0.90;99.90;;;;;;5013704;28;20446;-71
2021/01/03 00:05:28;;;;;;;26.07;10.07;;;0.90;99.90;;;;;;5018239;28;20287;-71
2021/01/03 00:07:55;;;;;;;22.53;9.70;;;0.90;99.90;;;;;;5013020;28;20747;-71
2021/01/03 00:10:22;;;;;;;20.03;9.83;;;0.90;99.90;;;;;;5010306;28;20214;-70
2021/01/03 00:12:49;;;;;;;25.20;10.20;;;0.90;99.90;;;;;;5009543;28;20642;-71
2021/01/03 00:15:22;;;;;;;23.93;9.87;;;0.90;99.90;;;;;;5012870;28;20306;-71
2021/01/03 00:17:48;;;;;;;20.13;9.87;;;0.90;99.90;;;;;;5013291;28;20247;-72
2021/01/03 00:20:18;;;;;;;20.57;9.23;;;0.90;99.90;;;;;;5016308;28;20242;-70
2021/01/03 00:22:44;;;;;;;22.57;9.47;;;0.90;99.90;;;;;;5012047;28;20207;-73
2021/01/03 00:25:12;;;;;;;20.60;8.73;;;0.90;99.90;;;;;;5017093;28;20196;-71
2021/01/03 00:27:39;;;;;;;19.50;8.43;;;0.90;99.90;;;;;;5020630;28;20291;-71
2021/01/03 00:30:10;;;;;;;16.90;7.73;;;0.90;99.90;;;;;;5018807;28;20314;-72
2021/01/03 00:32:37;;;;;;;21.40;6.83;;;0.90;99.90;;;;;;5015876;28;20645;-72
2021/01/03 00:35:04;;;;;;;16.17;6.97;;;0.90;99.90;;;;;;5013755;28;20315;-71
2021/01/03 00:37:31;;;;;;;17.33;7.83;;;0.90;99.90;;;;;;5013744;28;20236;-72
2021/01/03 00:39:57;;;;;;;17.97;7.83;;;0.90;99.90;;;;;;5020814;28;20770;-71
2021/01/03 00:42:23;;;;;;;19.93;8.13;;;0.90;99.90;;;;;;5012719;28;20259;-71
2021/01/03 00:44:50;;;;;;;25.40;10.07;;;0.90;99.90;;;;;;5019278;28;20338;-70
2021/01/03 00:47:17;;;;;;;19.40;8.90;;;1.00;99.90;;;;;;5018202;28;20299;-71
2021/01/03 00:49:43;;;;;;;22.60;9.47;;;1.00;99.90;;;;;;5018835;28;20256;-71
2021/01/03 00:52:10;;;;;;;20.17;9.53;;;1.00;99.90;;;;;;5012648;28;20238;-70
2021/01/03 00:54:36;;;;;;;20.03;8.90;;;1.00;99.90;;;;;;5015395;28;20306;-70
2021/01/03 00:57:03;;;;;;;20.67;8.53;;;1.00;99.90;;;;;;5013496;28;20731;-71
2021/01/03 00:59:29;;;;;;;20.33;8.43;;;1.00;99.90;;;;;;5014526;28;20303;-72
2021/01/03 01:01:55;;;;;;;19.60;8.17;;;1.00;99.90;;;;;;5017784;28;20302;-72
2021/01/03 01:04:23;;;;;;;18.00;7.97;;;1.00;99.90;;;;;;5019532;28;21161;-71
2021/01/03 01:06:49;;;;;;;18.20;7.93;;;1.10;99.90;;;;;;5015395;28;20208;-71
2021/01/03 01:09:15;;;;;;;15.37;7.97;;;1.10;99.90;;;;;;5013492;28;20218;-72
2021/01/03 01:11:43;;;;;;;15.83;7.40;;;1.00;99.90;;;;;;5015964;28;20315;-71
2021/01/03 01:14:10;;;;;;;18.43;7.07;;;1.10;99.90;;;;;;5016016;28;20310;-70
2021/01/03 01:16:36;;;;;;;14.87;7.03;;;1.00;99.90;;;;;;5012313;28;20208;-71
2021/01/03 01:19:03;;;;;;;20.60;7.13;;;1.10;99.90;;;;;;5017461;28;20212;-71
2021/01/03 01:21:31;;;;;;;14.00;7.20;;;1.10;99.90;;;;;;5010723;28;20303;-72
2021/01/03 01:23:57;;;;;;;15.07;7.27;;;1.10;99.90;;;;;;5013728;28;20288;-71
2021/01/03 01:26:24;;;;;;;13.40;6.73;;;1.10;99.90;;;;;;5015988;28;20304;-71
2021/01/03 01:28:51;;;;;;;12.50;6.63;;;1.10;99.90;;;;;;5038612;23;20231;-77
2021/01/03 01:31:18;;;;;;;16.90;6.90;;;1.20;99.90;;;;;;5020599;28;20736;-75
2021/01/03 01:33:44;;;;;;;13.73;6.80;;;1.20;99.90;;;;;;5017611;28;20208;-74
2021/01/03 01:36:11;;;;;;;13.33;6.43;;;1.10;99.90;;;;;;5013059;28;20204;-75
2021/01/03 01:38:38;;;;;;;16.80;7.13;;;1.10;99.90;;;;;;5015944;28;20302;-75
2021/01/03 01:41:06;;;;;;;13.47;6.57;;;1.10;99.90;;;;;;5017844;28;20861;-76
2021/01/03 01:43:32;;;;;;;13.77;6.60;;;1.10;99.90;;;;;;5017226;28;20204;-75
2021/01/03 01:45:59;;;;;;;9.97;5.50;;;1.20;99.90;;;;;;5016482;28;20291;-75
2021/01/03 01:48:31;;;;;;;10.50;5.27;;;1.20;99.90;;;;;;5016534;28;20291;-76
2021/01/03 01:51:03;;;;;;;10.70;5.20;;;1.40;99.90;;;;;;5012977;28;20228;-75
2021/01/03 01:53:35;;;;;;;8.83;5.03;;;1.40;99.90;;;;;;5019857;28;20201;-77
2021/01/03 01:56:12;;;;;;;7.60;4.53;;;1.50;99.90;;;;;;5014315;28;20374;-77
2021/01/03 01:58:47;;;;;;;10.03;5.07;;;1.50;99.90;;;;;;5017513;28;20644;-76
2021/01/03 02:01:19;;;;;;;9.00;4.77;;;1.50;99.90;;;;;;5018501;28;20578;-76
2021/01/03 02:03:54;;;;;;;8.30;4.57;;;1.40;99.90;;;;;;5020512;28;20216;-76
2021/01/03 02:06:35;;;;;;;8.83;4.60;;;1.50;99.90;;;;;;5014303;28;20299;-76
2021/01/03 02:09:06;;;;;;;8.63;4.93;;;1.60;99.90;;;;;;5020229;28;20240;-76
2021/01/03 02:11:34;;;;;;;8.13;4.50;;;1.60;99.90;;;;;;5014238;28;20522;-76
2021/01/03 02:14:03;;;;;;;9.50;4.43;;;1.60;99.90;;;;;;5015012;28;20212;-76
2021/01/03 02:16:33;;;;;;;10.23;4.93;;;1.60;99.90;;;;;;5011980;28;20661;-77
2021/01/03 02:18:59;;;;;;;12.00;4.50;;;1.60;99.90;;;;;;5018695;28;20287;-77
2021/01/03 02:21:34;;;;;;;9.80;4.73;;;1.50;99.90;;;;;;5017519;28;20796;-77
2021/01/03 02:24:09;;;;;;;7.80;4.23;;;1.50;99.90;;;;;;5014908;28;20290;-77
2021/01/03 02:26:39;;;;;;;8.37;4.67;;;1.50;99.90;;;;;;5016763;28;20215;-78
2021/01/03 02:29:08;;;;;;;8.77;4.50;;;1.50;99.90;;;;;;5013751;28;20243;-77
2021/01/03 02:31:39;;;;;;;8.93;5.03;;;1.60;99.90;;;;;;5018122;28;20311;-75
2021/01/03 02:34:07;;;;;;;6.70;4.73;;;1.70;99.90;;;;;;5018420;28;20223;-75
2021/01/03 02:36:39;;;;;;;8.20;4.93;;;1.60;99.90;;;;;;5014788;28;20285;-76
2021/01/03 02:39:16;;;;;;;8.10;4.83;;;1.60;99.90;;;;;;5017141;28;20206;-76
2021/01/03 02:41:44;;;;;;;8.20;4.60;;;1.50;99.90;;;;;;5012327;28;20270;-77
2021/01/03 02:44:10;;;;;;;8.23;4.87;;;1.50;99.90;;;;;;5013274;28;20223;-77
2021/01/03 02:46:37;;;;;;;8.30;5.00;;;1.50;99.90;;;;;;5014603;28;20246;-78
2021/01/03 02:49:04;;;;;;;7.50;4.83;;;1.40;99.90;;;;;;5011759;28;20212;-77
2021/01/03 02:51:35;;;;;;;8.23;5.20;;;1.50;99.90;;;;;;5016136;28;20674;-78
2021/01/03 02:54:01;;;;;;;7.00;4.33;;;1.40;99.90;;;;;;5011351;28;20282;-76
2021/01/03 02:56:28;;;;;;;8.40;4.20;;;1.40;99.90;;;;;;5013323;28;20291;-78
2021/01/03 02:58:55;;;;;;;8.10;4.30;;;1.40;99.90;;;;;;5013820;28;20210;-77
2021/01/03 03:01:21;;;;;;;8.93;4.90;;;1.50;99.90;;;;;;5010296;28;20721;-77
2021/01/03 03:03:48;;;;;;;8.90;4.50;;;1.50;99.90;;;;;;5011876;28;20240;-77
2021/01/03 03:06:14;;;;;;;8.47;4.87;;;1.40;99.90;;;;;;5010242;28;20214;-76
2021/01/03 03:08:41;;;;;;;9.50;5.50;;;1.50;99.90;;;;;;5010627;28;20217;-77
2021/01/03 03:11:07;;;;;;;9.50;4.47;;;1.40;99.90;;;;;;5013104;28;20232;-78
2021/01/03 03:13:34;;;;;;;6.90;4.13;;;1.40;99.90;;;;;;5016948;28;20212;-78
2021/01/03 03:16:01;;;;;;;7.53;4.63;;;1.40;99.90;;;;;;5012885;28;20235;-77
2021/01/03 03:18:28;;;;;;;8.40;4.60;;;1.40;99.90;;;;;;5011922;28;20611;-78
2021/01/03 03:20:54;;;;;;;7.53;4.50;;;1.40;99.90;;;;;;5012384;28;20330;-77
2021/01/03 03:23:21;;;;;;;7.83;4.50;;;1.50;99.90;;;;;;5011663;28;20295;-77
2021/01/03 03:25:48;;;;;;;8.27;4.60;;;1.60;99.90;;;;;;5010235;28;20209;-77
2021/01/03 03:28:15;;;;;;;6.93;4.13;;;1.50;99.90;;;;;;5013036;28;20971;-77
2021/01/03 03:30:42;;;;;;;10.67;5.13;;;1.50;99.90;;;;;;5015360;28;20378;-77
2021/01/03 03:33:09;;;;;;;9.70;5.20;;;1.40;99.90;;;;;;5009391;28;20226;-78
2021/01/03 03:35:37;;;;;;;11.93;5.37;;;1.40;99.90;;;;;;5010050;28;20315;-78
2021/01/03 03:38:06;;;;;;;12.97;5.83;;;1.40;99.90;;;;;;5012157;28;20216;-78
2021/01/03 03:40:33;;;;;;;10.70;5.80;;;1.30;99.90;;;;;;5010500;28;20311;-77
2021/01/03 03:42:59;;;;;;;9.23;5.07;;;1.40;99.90;;;;;;5008211;28;20236;-78
2021/01/03 03:45:26;;;;;;;8.60;4.83;;;1.30;99.90;;;;;;5005619;28;20263;-77
2021/01/03 03:47:52;;;;;;;8.70;4.50;;;1.30;99.90;;;;;;5008484;28;20257;-78
2021/01/03 03:50:22;;;;;;;9.53;5.00;;;1.30;99.90;;;;;;5010176;28;20228;-78
2021/01/03 03:52:48;;;;;;;8.47;5.03;;;1.30;99.90;;;;;;5009136;28;20279;-76
2021/01/03 03:55:16;;;;;;;7.53;4.60;;;1.20;99.90;;;;;;5014500;28;20228;-77
2021/01/03 03:57:43;;;;;;;8.20;4.90;;;1.20;99.90;;;;;;5010916;28;20283;-78
2021/01/03 04:00:13;;;;;;;6.93;3.93;;;1.30;99.90;;;;;;5008609;28;20288;-78
2021/01/03 04:02:41;;;;;;;6.83;4.43;;;1.30;99.90;;;;;;5010223;28;20447;-77
2021/01/03 04:05:10;;;;;;;8.17;4.67;;;1.40;99.90;;;;;;5013262;28;20211;-78
2021/01/03 04:07:37;;;;;;;6.20;4.30;;;1.30;99.90;;;;;;5012380;28;20228;-77
2021/01/03 04:10:04;;;;;;;8.00;4.50;;;1.20;99.90;;;;;;5020773;28;20534;-78
2021/01/03 04:12:31;;;;;;;8.13;5.00;;;1.20;99.90;;;;;;5018854;28;20311;-78
2021/01/03 04:14:57;;;;;;;7.70;4.80;;;1.20;99.90;;;;;;5014988;28;20557;-78
2021/01/03 04:17:24;;;;;;;7.23;4.30;;;1.20;99.90;;;;;;5015635;28;20204;-77
2021/01/03 04:19:50;;;;;;;8.03;4.37;;;1.20;99.90;;;;;;5013789;28;20197;-77
2021/01/03 04:22:16;;;;;;;8.50;4.57;;;1.20;99.90;;;;;;5011062;28;20219;-76
2021/01/03 04:24:44;;;;;;;6.83;4.13;;;1.20;99.90;;;;;;5010218;28;20278;-76
2021/01/03 04:27:10;;;;;;;7.17;4.23;;;1.20;99.90;;;;;;5009000;28;20213;-76
2021/01/03 04:29:37;;;;;;;9.30;4.87;;;1.20;99.90;;;;;;5013919;28;20682;-76
2021/01/03 04:32:06;;;;;;;7.93;4.50;;;1.20;99.90;;;;;;5007289;28;20734;-78
2021/01/03 04:34:33;;;;;;;8.03;4.90;;;1.20;99.90;;;;;;5010475;28;20319;-76
2021/01/03 04:37:00;;;;;;;7.13;4.30;;;1.20;99.90;;;;;;5012251;28;20224;-79
2021/01/03 04:39:28;;;;;;;7.07;4.50;;;1.20;99.90;;;;;;5014040;28;20291;-78
2021/01/03 04:41:59;;;;;;;9.27;5.10;;;1.20;99.90;;;;;;5011826;28;20318;-78
2021/01/03 04:44:31;;;;;;;8.97;5.27;;;1.10;99.90;;;;;;5010330;28;20207;-78
2021/01/03 04:47:02;;;;;;;10.63;5.37;;;1.10;99.90;;;;;;5006877;28;20287;-78
2021/01/03 04:49:37;;;;;;;8.20;4.77;;;1.10;99.90;;;;;;5009550;28;20665;-78
2021/01/03 04:52:27;;;;;;;10.53;5.40;;;1.20;99.90;;;;;;5010390;28;20302;-77
2021/01/03 04:55:02;;;;;;;8.57;4.70;;;1.20;99.90;;;;;;5010070;28;20254;-77
2021/01/03 04:57:40;;;;;;;7.67;4.37;;;1.30;99.90;;;;;;5013380;28;20234;-77
2021/01/03 05:00:07;;;;;;;9.60;5.13;;;1.40;99.90;;;;;;5010360;28;20204;-77
2021/01/03 05:03:03;;;;;;;8.67;5.10;;;1.40;99.90;;;;;;5011155;28;20248;-78
2021/01/03 05:05:33;;;;;;;11.43;5.23;;;1.30;99.90;;;;;;4960094;28;20209;-78
2021/01/03 05:08:17;;;;;;;12.53;5.40;;;1.40;99.90;;;;;;5012246;28;20818;-77
2021/01/03 05:10:45;;;;;;;13.93;4.83;;;1.50;99.90;;;;;;5014187;28;20741;-78
2021/01/03 05:13:26;;;;;;;10.40;5.40;;;1.60;99.90;;;;;;5015328;28;20547;-77
2021/01/03 05:15:52;;;;;;;12.67;6.27;;;1.60;99.90;;;;;;5012307;28;20694;-77
2021/01/03 05:18:19;;;;;;;10.43;5.23;;;1.60;99.90;;;;;;5011765;28;20291;-77
2021/01/03 05:20:53;;;;;;;10.40;5.50;;;1.60;99.90;;;;;;5015144;28;20306;-77
2021/01/03 05:23:21;;;;;;;10.20;5.40;;;1.70;99.90;;;;;;5011927;28;20208;-77
2021/01/03 05:25:49;;;;;;;10.70;5.80;;;1.60;99.90;;;;;;5010503;28;20232;-78
2021/01/03 05:28:22;;;;;;;10.47;5.87;;;1.60;99.90;;;;;;5018745;28;20275;-77
2021/01/03 05:30:49;;;;;;;9.80;5.53;;;1.70;99.90;;;;;;5018364;28;20767;-78
2021/01/03 05:33:24;;;;;;;9.70;5.43;;;1.70;99.90;;;;;;5016353;28;20292;-78
2021/01/03 05:35:50;;;;;;;13.23;5.43;;;1.70;99.90;;;;;;5017348;28;20319;-77
2021/01/03 05:38:36;;;;;;;11.43;5.77;;;1.80;99.90;;;;;;5016421;28;20302;-78
2021/01/03 05:41:15;;;;;;;9.73;4.87;;;1.80;99.90;;;;;;5014526;28;20769;-78
2021/01/03 05:43:43;;;;;;;9.43;4.87;;;1.80;99.90;;;;;;5013551;28;20614;-78
2021/01/03 05:46:19;;;;;;;8.53;4.77;;;1.70;99.90;;;;;;5010495;28;20200;-78
2021/01/03 05:48:59;;;;;;;9.30;5.47;;;1.80;99.90;;;;;;5014470;28;20211;-78
2021/01/03 05:51:40;;;;;;;10.73;5.30;;;1.80;99.90;;;;;;5013325;28;20220;-78
2021/01/03 05:54:10;;;;;;;10.17;4.97;;;1.80;99.90;;;;;;5015885;28;20253;-79
2021/01/03 05:56:37;;;;;;;8.53;4.73;;;1.70;99.90;;;;;;5012558;28;20340;-77
2021/01/03 05:59:04;;;;;;;8.80;5.13;;;1.70;99.90;;;;;;5015216;28;20223;-78
2021/01/03 06:01:34;;;;;;;9.13;4.73;;;1.70;99.90;;;;;;5013115;28;20313;-76
2021/01/03 06:04:04;;;;;;;9.87;5.17;;;1.80;99.90;;;;;;5017313;28;20301;-76
2021/01/03 06:06:45;;;;;;;9.27;5.20;;;1.80;99.90;;;;;;5012110;28;20699;-76
2021/01/03 06:09:12;;;;;;;11.27;5.90;;;1.80;99.90;;;;;;5015077;28;20679;-76
2021/01/03 06:11:39;;;;;;;10.40;6.20;;;1.70;99.90;;;;;;5008524;28;20306;-77
2021/01/03 06:14:06;;;;;;;10.27;5.53;;;1.70;99.90;;;;;;5012496;28;20493;-78
2021/01/03 06:16:43;;;;;;;11.13;6.00;;;1.70;99.90;;;;;;5016885;28;20299;-77
2021/01/03 06:19:25;;;;;;;10.73;5.90;;;1.60;99.90;;;;;;5013585;28;20303;-78
2021/01/03 06:21:54;;;;;;;10.73;5.90;;;1.60;99.90;;;;;;5011368;28;20311;-78
2021/01/03 06:24:25;;;;;;;10.00;5.40;;;1.60;99.90;;;;;;5013423;28;21018;-78
2021/01/03 06:26:54;;;;;;;10.83;6.10;;;1.50;99.90;;;;;;5007625;28;20242;-78
2021/01/03 06:29:28;;;;;;;10.63;6.00;;;1.50;99.90;;;;;;5018328;28;20676;-78
2021/01/03 06:32:25;;;;;;;10.53;5.97;;;1.50;99.90;;;;;;5017267;28;20234;-78
2021/01/03 06:34:53;;;;;;;10.80;6.00;;;1.50;99.90;;;;;;5020313;28;20647;-77
2021/01/03 06:37:29;;;;;;;10.13;5.67;;;1.50;99.90;;;;;;5018092;28;20624;-78
2021/01/03 06:40:05;;;;;;;11.40;5.97;;;1.50;99.90;;;;;;5018904;28;20280;-78
2021/01/03 06:43:08;;;;;;;13.17;6.60;;;1.40;99.90;;;;;;5032335;28;20309;-77
2021/01/03 06:46:11;;;;;;;11.13;6.07;;;1.40;99.90;;;;;;5026839;28;20483;-78
2021/01/03 06:49:13;;;;;;;9.37;5.27;;;1.40;99.90;;;;;;5000344;28;20287;-78
2021/01/03 06:51:57;;;;;;;10.13;5.60;;;1.40;99.90;;;;;;5011799;28;20311;-78
2021/01/03 06:54:50;;;;;;;12.50;5.60;;;1.30;99.90;;;;;;5017300;28;20207;-77
2021/01/03 06:57:51;;;;;;;10.80;6.00;;;1.30;99.90;;;;;;5012379;28;20319;-77
2021/01/03 07:00:21;;;;;;;12.47;6.10;;;1.30;99.90;;;;;;5015689;28;20697;-77
2021/01/03 07:02:51;;;;;;;12.37;5.57;;;1.30;99.90;;;;;;5012267;28;20816;-78
2021/01/03 07:05:19;;;;;;;10.80;5.27;;;1.30;99.90;;;;;;5013218;28;20212;-78
2021/01/03 07:07:57;;;;;;;12.27;6.07;;;1.40;99.90;;;;;;5009663;28;20250;-78
2021/01/03 07:10:36;;;;;;;11.10;6.07;;;1.40;99.90;;;;;;5011155;28;20286;-78
2021/01/03 07:13:03;;;;;;;16.77;8.70;;;1.40;99.90;;;;;;5008469;28;20295;-78
2021/01/03 07:15:40;;;;;;;11.80;6.10;;;1.50;99.90;;;;;;5011214;28;20274;-78
2021/01/03 07:18:23;;;;;;;15.97;7.57;;;1.50;99.90;;;;;;5010282;28;20243;-78
2021/01/03 07:20:55;;;;;;;14.73;7.17;;;1.50;99.90;;;;;;5014214;28;20306;-77
2021/01/03 07:23:31;;;;;;;12.20;6.30;;;1.60;99.90;;;;;;5013732;28;20238;-77
2021/01/03 07:26:13;;;;;;;13.70;6.93;;;1.70;99.90;;;;;;5012083;28;20291;-78
2021/01/03 07:28:45;;;;;;;13.53;6.23;;;1.70;99.90;;;;;;5009284;28;20303;-77
2021/01/03 07:31:24;;;;;;;13.23;6.40;;;1.60;99.90;;;;;;5012206;28;20224;-77
2021/01/03 07:34:01;;;;;;;16.73;8.00;;;1.60;99.90;;;;;;5012898;28;20207;-77
2021/01/03 07:36:45;;;;;;;16.70;8.33;;;1.50;99.90;;;;;;5009758;28;20282;-78
2021/01/03 07:39:35;;;;;;;19.80;9.50;;;1.50;99.90;;;;;;5012330;28;20231;-78
2021/01/03 07:42:23;;;;;;;13.17;7.20;;;1.50;99.90;;;;;;5008403;28;20319;-77
2021/01/03 07:44:51;;;;;;;15.60;8.53;;;1.60;99.90;;;;;;5010036;28;20493;-77
2021/01/03 07:47:40;;;;;;;17.93;8.70;;;1.50;99.90;;;;;;5008476;28;20277;-78
2021/01/03 07:50:38;;;;;;;15.53;8.07;;;1.50;99.90;;;;;;5006703;28;20203;-78
2021/01/03 07:53:25;;;;;;;18.53;8.67;;;1.60;99.90;;;;;;4980016;28;20296;-78
2021/01/03 07:55:52;;;;;;;16.53;9.00;;;1.50;99.90;;;;;;5005074;28;20606;-78
2021/01/03 07:58:22;;;;;;;16.37;8.73;;;1.50;99.90;;;;;;5009590;28;20346;-78
2021/01/03 08:00:53;;;;;;;14.27;6.77;;;1.50;99.90;;;;;;5010641;28;20234;-78
2021/01/03 08:03:22;;;;;;;15.70;7.47;;;1.60;99.90;;;;;;5012709;28;20227;-77
2021/01/03 08:05:49;;;;;;;17.23;8.13;;;1.60;99.90;;;;;;5014589;28;20295;-77
2021/01/03 08:08:19;;;;;;;15.50;7.27;;;1.70;99.90;;;;;;5013020;28;20295;-78
2021/01/03 08:10:48;;;;;;;17.87;9.03;;;1.70;99.90;;;;;;5011474;28;20259;-77
2021/01/03 08:13:19;;;;;;;24.73;11.50;;;1.80;99.90;;;;;;5008547;28;20991;-77
2021/01/03 08:15:46;;;;;;;20.67;9.53;;;1.80;99.90;;;;;;5010020;28;20772;-77
2021/01/03 08:18:16;;;;;;;18.73;9.47;;;1.80;99.90;;;;;;5012197;28;20291;-77
2021/01/03 08:20:42;;;;;;;19.10;10.50;;;1.80;99.90;;;;;;5013445;28;20266;-78
2021/01/03 08:23:26;;;;;;;20.77;11.07;;;1.80;99.90;;;;;;5006490;28;20200;-78
2021/01/03 08:26:12;;;;;;;18.47;10.13;;;1.90;99.90;;;;;;5010110;28;20200;-78
2021/01/03 08:28:49;;;;;;;20.30;9.57;;;1.90;99.90;;;;;;5012190;28;20311;-77
2021/01/03 08:31:15;;;;;;;18.40;9.47;;;2.00;99.90;;;;;;5012824;28;20338;-78
2021/01/03 08:33:43;;;;;;;19.17;9.67;;;2.00;99.90;;;;;;5010720;28;20313;-78
2021/01/03 08:36:19;;;;;;;17.03;8.93;;;2.00;99.90;;;;;;5012875;28;20323;-78
2021/01/03 08:38:47;;;;;;;17.83;8.70;;;2.00;99.90;;;;;;5008459;28;20287;-76
2021/01/03 08:41:18;;;;;;;16.23;8.27;;;2.10;99.90;;;;;;5008839;28;20725;-76
2021/01/03 08:43:45;;;;;;;17.17;8.57;;;2.20;99.90;;;;;;5009716;28;20204;-76
2021/01/03 08:46:17;;;;;;;16.67;8.57;;;2.20;99.90;;;;;;5011355;28;20296;-77
2021/01/03 08:48:43;;;;;;;14.23;8.20;;;2.30;99.90;;;;;;5011995;28;20242;-77
2021/01/03 08:51:13;;;;;;;16.60;8.77;;;2.30;99.90;;;;;;5013953;28;20588;-77
2021/01/03 08:53:40;;;;;;;18.03;8.70;;;2.30;99.90;;;;;;5012148;28;20287;-76
2021/01/03 08:56:18;;;;;;;15.77;8.77;;;2.40;99.90;;;;;;5010314;28;20247;-76
2021/01/03 08:58:45;;;;;;;16.73;8.07;;;2.40;99.90;;;;;;5016342;28;20207;-76
2021/01/03 09:01:19;;;;;;;16.07;8.37;;;2.50;99.90;;;;;;5014453;28;20307;-74
2021/01/03 09:03:46;;;;;;;14.47;7.33;;;2.50;99.90;;;;;;5013230;28;20294;-74
2021/01/03 09:06:15;;;;;;;17.23;7.80;;;2.60;99.90;;;;;;5010527;28;20828;-75
2021/01/03 09:08:42;;;;;;;14.97;7.57;;;2.70;99.90;;;;;;5010696;28;20295;-75
2021/01/03 09:11:14;;;;;;;15.47;7.33;;;2.70;99.90;;;;;;5015695;28;20223;-75
2021/01/03 09:13:46;;;;;;;15.83;7.30;;;2.70;99.90;;;;;;5011367;28;20200;-75
2021/01/03 09:16:23;;;;;;;17.87;8.93;;;2.70;99.90;;;;;;5013609;28;20270;-75
2021/01/03 09:19:05;;;;;;;15.27;7.83;;;2.80;99.90;;;;;;5015059;28;20618;-74
2021/01/03 09:21:31;;;;;;;14.60;7.27;;;2.80;99.90;;;;;;5018589;28;20286;-75
2021/01/03 09:24:02;;;;;;;17.17;7.83;;;2.90;99.90;;;;;;5010550;28;20286;-75
2021/01/03 09:26:41;;;;;;;16.57;7.80;;;3.00;99.90;;;;;;5013385;28;20287;-75
2021/01/03 09:29:12;;;;;;;16.90;7.80;;;3.00;99.90;;;;;;5012942;28;20311;-75
2021/01/03 09:31:57;;;;;;;18.17;7.73;;;3.20;99.90;;;;;;5008070;28;20238;-74
2021/01/03 09:34:39;;;;;;;17.33;7.53;;;3.30;99.90;;;;;;5009038;28;20291;-75
2021/01/03 09:37:17;;;;;;;13.40;6.93;;;3.30;99.90;;;;;;5012024;28;20303;-75
2021/01/03 09:40:03;;;;;;;14.97;6.50;;;3.30;99.90;;;;;;5011288;28;20298;-75
2021/01/03 09:42:39;;;;;;;16.33;7.37;;;3.30;99.90;;;;;;5006407;28;20671;-75
2021/01/03 09:45:32;;;;;;;14.00;7.43;;;3.20;99.90;;;;;;5000900;28;20299;-74
2021/01/03 09:47:59;;;;;;;15.07;7.07;;;3.20;99.90;;;;;;4994793;28;20957;-75
2021/01/03 09:50:30;;;;;;;15.67;7.80;;;3.20;99.90;;;;;;5005259;28;20208;-75
2021/01/03 09:53:09;;;;;;;14.57;7.43;;;3.20;99.90;;;;;;5001992;28;21029;-75
2021/01/03 09:55:44;;;;;;;15.57;8.10;;;3.20;99.90;;;;;;5003798;28;20238;-76
2021/01/03 09:58:12;;;;;;;12.73;6.47;;;3.20;99.90;;;;;;5002721;28;20598;-75
2021/01/03 10:00:49;;;;;;;11.53;6.53;;;3.20;99.90;;;;;;5003959;28;20224;-75
2021/01/03 10:03:19;;;;;;;13.40;6.70;;;3.20;99.90;;;;;;5001975;28;20891;-75
2021/01/03 10:05:46;;;;;;;12.80;6.20;;;3.20;99.90;;;;;;5002613;28;20288;-75
2021/01/03 10:08:18;;;;;;;12.67;6.30;;;3.20;99.90;;;;;;5010936;28;20661;-75
2021/01/03 10:10:47;;;;;;;13.87;6.50;;;3.20;99.90;;;;;;5004425;28;20754;-75
2021/01/03 10:13:16;;;;;;;11.67;6.70;;;3.20;99.90;;;;;;5010377;28;20683;-75
2021/01/03 10:15:43;;;;;;;12.23;6.30;;;3.20;99.90;;;;;;5008065;28;20239;-75
2021/01/03 10:18:12;;;;;;;12.87;7.37;;;3.30;99.90;;;;;;5005909;28;20228;-75
2021/01/03 10:20:41;;;;;;;13.37;6.47;;;3.20;99.90;;;;;;5004435;28;20441;-75
2021/01/03 10:23:11;;;;;;;15.27;7.17;;;3.40;99.90;;;;;;5006248;28;20209;-75
2021/01/03 10:25:38;;;;;;;13.97;6.93;;;3.30;99.90;;;;;;4998664;28;20219;-75
2021/01/03 10:28:08;;;;;;;11.17;5.63;;;3.30;99.90;;;;;;5005840;28;20303;-76
2021/01/03 10:30:36;;;;;;;10.57;5.50;;;3.40;99.90;;;;;;5006514;28;20224;-76
2021/01/03 10:33:03;;;;;;;11.70;5.93;;;3.40;99.90;;;;;;5006525;28;20938;-76
2021/01/03 10:35:30;;;;;;;11.67;6.17;;;3.40;99.90;;;;;;5008417;28;20226;-76
2021/01/03 10:37:56;;;;;;;12.53;5.73;;;3.50;99.90;;;;;;5010303;28;20311;-76
2021/01/03 10:40:23;;;;;;;9.33;5.10;;;3.60;99.90;;;;;;5012152;28;20205;-76
2021/01/03 10:42:50;;;;;;;12.80;6.00;;;3.50;99.90;;;;;;5010233;28;20266;-75
2021/01/03 10:45:17;;;;;;;9.23;5.17;;;3.60;99.90;;;;;;5002482;28;20207;-76
2021/01/03 10:47:44;;;;;;;9.23;4.63;;;3.60;99.90;;;;;;5007891;28;20199;-75
2021/01/03 10:50:13;;;;;;;10.27;5.80;;;3.60;99.90;;;;;;5005138;28;20291;-76
2021/01/03 10:52:39;;;;;;;7.60;4.67;;;3.60;99.90;;;;;;5004911;28;20247;-75
2021/01/03 10:55:07;;;;;;;9.57;5.63;;;3.60;99.90;;;;;;5005252;28;20220;-77
2021/01/03 10:57:34;;;;;;;9.90;5.47;;;3.60;99.90;;;;;;5000153;28;20883;-76
2021/01/03 11:00:00;;;;;;;10.03;5.13;;;3.60;99.90;;;;;;5006332;28;20207;-74
2021/01/03 11:02:27;;;;;;;9.03;5.63;;;3.50;99.90;;;;;;5004157;28;20238;-76
2021/01/03 11:04:54;;;;;;;10.23;5.07;;;3.50;99.90;;;;;;5005071;28;21040;-76
2021/01/03 11:07:21;;;;;;;10.10;5.53;;;3.40;99.90;;;;;;5004192;28;20218;-75
2021/01/03 11:09:47;;;;;;;9.17;4.70;;;3.40;99.90;;;;;;5007911;28;20231;-75
2021/01/03 11:12:18;;;;;;;9.00;5.30;;;3.40;99.90;;;;;;5005153;28;20219;-75
2021/01/03 11:14:45;;;;;;;11.50;4.30;;;3.30;99.90;;;;;;5006005;28;20266;-76
2021/01/03 11:17:14;;;;;;;10.63;4.80;;;3.30;99.90;;;;;;5000418;28;20239;-75
2021/01/03 11:19:41;;;;;;;8.13;4.97;;;3.30;99.90;;;;;;5001968;28;20208;-77
2021/01/03 11:22:11;;;;;;;13.90;4.93;;;3.30;99.90;;;;;;5005652;28;20311;-76
2021/01/03 11:24:38;;;;;;;9.97;5.43;;;3.20;99.90;;;;;;5002479;28;20208;-76
2021/01/03 11:27:08;;;;;;;9.20;5.40;;;3.10;99.90;;;;;;5004931;28;20232;-76
2021/01/03 11:29:34;;;;;;;7.10;4.00;;;3.10;99.90;;;;;;5003203;28;20690;-75
2021/01/03 11:32:01;;;;;;;8.57;4.80;;;3.20;99.90;;;;;;5010442;28;20231;-78
2021/01/03 11:34:31;;;;;;;9.40;4.30;;;3.20;99.90;;;;;;5008386;28;20306;-76
2021/01/03 11:37:01;;;;;;;6.80;3.80;;;3.20;99.90;;;;;;5013323;28;20232;-76
2021/01/03 11:39:31;;;;;;;8.43;4.40;;;3.30;99.90;;;;;;5007366;28;20203;-76
2021/01/03 11:42:00;;;;;;;8.50;4.47;;;3.20;99.90;;;;;;5010489;28;20314;-75
2021/01/03 11:44:27;;;;;;;9.13;4.43;;;3.30;99.90;;;;;;5012263;28;20565;-75
2021/01/03 11:46:58;;;;;;;9.50;4.20;;;3.20;99.90;;;;;;5006063;28;20220;-76
2021/01/03 11:49:24;;;;;;;7.33;4.00;;;3.30;99.90;;;;;;5004862;28;21619;-75
2021/01/03 11:51:51;;;;;;;6.73;3.90;;;3.30;99.90;;;;;;5010117;28;20603;-74
2021/01/03 11:54:19;;;;;;;9.87;4.30;;;3.30;99.90;;;;;;5008006;28;20205;-75
2021/01/03 11:56:46;;;;;;;8.10;4.10;;;3.30;99.90;;;;;;4999927;28;20244;-75
2021/01/03 11:59:14;;;;;;;8.67;4.50;;;3.20;99.90;;;;;;5004342;28;20298;-75
2021/01/03 12:01:41;;;;;;;6.43;3.83;;;3.10;99.90;;;;;;5006511;28;20314;-74
2021/01/03 12:04:07;;;;;;;8.07;4.40;;;3.20;99.90;;;;;;5009629;28;20250;-75
2021/01/03 12:06:33;;;;;;;7.40;4.27;;;3.10;99.90;;;;;;5003993;28;20725;-75
2021/01/03 12:09:00;;;;;;;7.10;3.90;;;3.20;99.90;;;;;;5008915;28;20741;-75
2021/01/03 12:11:26;;;;;;;8.67;4.20;;;3.10;99.90;;;;;;5008459;28;20220;-74
2021/01/03 12:13:59;;;;;;;9.30;3.80;;;3.10;99.90;;;;;;5006775;28;20891;-74
2021/01/03 12:16:28;;;;;;;7.33;3.67;;;3.10;99.90;;;;;;5007229;28;20220;-75
2021/01/03 12:18:54;;;;;;;5.93;3.50;;;3.10;99.90;;;;;;5008389;28;20235;-74
2021/01/03 12:21:24;;;;;;;6.83;3.80;;;3.10;99.90;;;;;;5013861;28;20263;-74
2021/01/03 12:23:50;;;;;;;6.03;3.53;;;3.10;99.90;;;;;;5011285;28;20302;-75
2021/01/03 12:26:17;;;;;;;6.77;3.73;;;3.10;99.90;;;;;;5003511;28;20283;-75
2021/01/03 12:28:43;;;;;;;6.73;3.50;;;3.10;99.90;;;;;;5011510;28;20295;-74
2021/01/03 12:31:10;;;;;;;8.07;4.03;;;3.10;99.90;;;;;;5012242;28;20252;-76
2021/01/03 12:33:37;;;;;;;7.50;3.73;;;3.10;99.90;;;;;;5012479;28;20234;-75
2021/01/03 12:36:04;;;;;;;6.23;3.60;;;3.10;99.90;;;;;;5007206;28;20944;-74
2021/01/03 12:38:31;;;;;;;8.67;4.30;;;3.10;99.90;;;;;;5008457;28;20298;-76
2021/01/03 12:40:57;;;;;;;7.20;3.60;;;3.10;99.90;;;;;;5012708;28;20310;-77
2021/01/03 12:43:24;;;;;;;8.67;4.10;;;3.10;99.90;;;;;;5009141;28;20295;-75
2021/01/03 12:45:50;;;;;;;6.60;3.83;;;3.00;99.90;;;;;;5004772;28;20257;-75
2021/01/03 12:48:18;;;;;;;8.27;3.77;;;2.90;99.90;;;;;;5009560;28;20227;-75
2021/01/03 12:50:45;;;;;;;8.23;4.53;;;2.90;99.90;;;;;;5011218;28;20269;-75
2021/01/03 12:53:11;;;;;;;6.70;3.80;;;2.80;99.90;;;;;;5009735;28;20284;-75
2021/01/03 12:55:38;;;;;;;5.93;3.40;;;2.80;99.90;;;;;;5010791;28;20278;-75
2021/01/03 12:58:04;;;;;;;6.50;3.70;;;2.80;99.90;;;;;;5011925;28;20300;-76
2021/01/03 13:00:30;;;;;;;6.20;3.87;;;2.80;99.90;;;;;;5008250;28;20307;-75
2021/01/03 13:02:57;;;;;;;7.10;3.83;;;2.70;99.90;;;;;;5005407;28;20236;-74
2021/01/03 13:05:24;;;;;;;6.70;3.83;;;2.70;99.90;;;;;;5002002;28;20222;-75
2021/01/03 13:07:51;;;;;;;6.90;4.17;;;2.70;99.90;;;;;;5011917;28;20208;-75